Latest Weather Observations for Mount Crawford

IDS60801

Issued at 2:31 pm CST Friday 28 August 2015 (issued every 30 minutes, with the page automatically refreshed every 10 minutes)

About weather observations | Map of weather stations | Latest weather observations for SA | Other Formats
Station Details ID: 023878 Name: MT CRAWFORD AWS Lat: -34.73 Lon: 138.93 Height: 525.0 m
Data from the previous 72 hours. | See also: Recent months at Mount Crawford
Date/Time
CST
Temp
°C
App
Temp
°C
Dew
Point
Rel
Hum
%
Delta-T
°C
Wind Press
QNH
hPa
Press
MSL
hPa
Rain
since 9 am
mm
Dir
 
Spd
km/h
Gust
km/h
Spd
kts
Gust
kts
28/02:30pm 8.4 5.4 5.9 84 1.2 SSE 11 17 6 9 1026.4 1026.8 0.2
28/02:00pm 8.4 5.1 6.5 88 0.9 SSW 13 19 7 10 1026.4 1026.8 0.2
28/01:30pm 8.2 5.0 6.8 91 0.7 S 13 17 7 9 1026.5 1026.9 0.2
28/01:00pm 7.5 3.4 6.3 92 0.6 SSE 17 22 9 12 1026.9 1027.3 0.2
28/12:30pm 8.8 6.7 5.9 82 1.4 SE 6 13 3 7 1027.3 1027.6 0.0
28/12:00pm 7.3 3.8 7.2 99 0.0 SE 15 20 8 11 1027.8 1028.2 0.0
28/11:30am 7.2 3.6 6.6 96 0.3 SE 15 19 8 10 1028.2 1028.6 0.0
28/11:00am 7.4 4.2 7.0 97 0.2 SE 13 20 7 11 1028.4 1028.8 0.0
28/10:30am 7.5 3.1 6.6 94 0.4 SE 19 28 10 15 1028.4 1028.8 0.0
28/10:00am 7.3 3.4 7.2 99 0.0 ESE 17 24 9 13 1028.5 1028.9 0.0
28/09:30am 7.1 2.8 7.1 100 0.0 SE 19 26 10 14 1028.5 1028.9 0.0
28/09:00am 6.6 2.2 6.6 100 0.0 SE 19 26 10 14 1028.3 1028.7 0.8
28/08:30am 6.1 2.0 6.1 100 0.0 ESE 17 24 9 13 1028.1 1028.5 0.8
28/08:00am 5.8 1.2 5.8 100 0.0 ESE 19 24 10 13 1027.8 1028.2 0.8
28/07:30am 5.7 1.1 5.7 100 0.0 SE 19 30 10 16 1027.6 1028.0 0.8
28/07:00am 5.8 1.0 5.8 100 0.0 SE 20 32 11 17 1027.3 1027.6 0.8
28/06:30am 5.8 1.0 5.8 100 0.0 SE 20 28 11 15 1027.0 1027.4 0.6
28/06:00am 5.8 1.6 5.8 100 0.0 ESE 17 24 9 13 1026.8 1027.2 0.6
28/05:30am 5.6 2.1 5.6 100 0.0 SE 13 19 7 10 1026.8 1027.2 0.6
28/05:00am 5.7 1.1 5.7 100 0.0 ESE 19 28 10 15 1026.6 1027.0 0.6
28/04:30am 5.9 1.2 5.9 100 0.0 ESE 20 32 11 17 1026.4 1026.8 0.6
28/04:00am 6.1 1.4 6.1 100 0.0 SE 20 32 11 17 1026.3 1026.7 0.6
28/03:30am 6.0 2.6 6.0 100 0.0 SE 13 19 7 10 1026.3 1026.7 0.6
28/03:00am 6.3 1.8 6.3 100 0.0 SE 19 26 10 14 1026.2 1026.6 0.6
28/02:30am 6.2 2.1 6.2 100 0.0 SE 17 22 9 12 1026.3 1026.7 0.6
28/02:00am 6.3 1.7 6.3 100 0.0 SE 20 32 11 17 1026.1 1026.5 0.6
28/01:30am 6.4 1.4 6.4 100 0.0 SSE 22 33 12 18 1026.2 1026.6 0.6
28/01:00am 6.5 2.1 6.5 100 0.0 SE 19 30 10 16 1026.2 1026.6 0.6
28/12:30am 6.4 2.0 6.4 100 0.0 SSE 19 28 10 15 1026.1 1026.5 0.6
28/12:00am 6.1 1.6 6.0 99 0.0 SSE 19 30 10 16 1026.3 1026.7 0.6
 
Date/Time
CST
Temp
°C
App
Temp
°C
Dew
Point
Rel
Hum
%
Delta-T
°C
Wind Press
QNH
hPa
Press
MSL
hPa
Rain
since 9 am
mm
Dir
 
Spd
km/h
Gust
km/h
Spd
kts
Gust
kts
27/11:30pm 6.0 1.3 5.9 99 0.0 S 20 28 11 15 1026.4 1026.8 0.6
27/11:00pm 5.6 1.4 5.5 99 0.0 SSE 17 30 9 16 1026.5 1026.9 0.6
27/10:30pm 5.4 0.7 5.3 99 0.0 SSW 19 24 10 13 1026.6 1027.0 0.6
27/10:00pm 5.6 1.4 5.5 99 0.0 SSW 17 24 9 13 1026.6 1027.0 0.6
27/09:30pm 5.6 1.7 5.5 99 0.0 S 15 22 8 12 1026.7 1027.1 0.6
27/09:00pm 5.6 2.1 5.5 99 0.0 SSW 13 19 7 10 1026.7 1027.1 0.6
27/08:30pm 5.9 1.3 5.6 98 0.1 SSW 19 28 10 15 1026.8 1027.2 0.6
27/08:00pm 5.6 1.6 5.0 96 0.3 SSW 15 20 8 11 1026.5 1026.9 0.6
27/07:30pm 6.0 0.7 5.0 93 0.4 SSW 22 32 12 17 1026.2 1026.6 0.6
27/07:00pm 6.1 1.5 5.7 97 0.2 SSW 19 26 10 14 1025.9 1026.3 0.6
27/06:30pm 6.6 2.1 6.2 97 0.2 S 19 24 10 13 1025.6 1025.9 0.6
27/06:00pm 6.8 3.1 6.5 98 0.1 S 15 19 8 10 1025.4 1025.7 0.6
27/05:30pm 7.6 4.1 7.2 97 0.2 S 15 22 8 12 1024.9 1025.3 0.6
27/05:00pm 8.6 4.6 6.7 88 0.9 S 17 28 9 15 1024.5 1024.9 0.4
27/04:30pm 8.0 3.5 6.9 93 0.5 SSW 20 30 11 16 1024.4 1024.8 0.4
27/04:00pm 8.3 4.1 7.5 95 0.4 SSW 19 26 10 14 1024.3 1024.7 0.4
27/03:30pm 8.3 4.3 6.8 90 0.7 SSW 17 28 9 15 1024.0 1024.3 0.4
27/03:00pm 8.4 4.0 6.7 89 0.8 SSW 19 32 10 17 1023.9 1024.2 0.2
27/02:30pm 10.6 6.6 6.7 77 1.9 WSW 17 28 9 15 1023.6 1023.9 0.0
27/02:00pm 11.1 7.4 7.8 80 1.6 WSW 17 22 9 12 1023.7 1024.0 0.0
27/01:30pm 9.7 6.4 6.2 79 1.7 WSW 13 19 7 10 1023.9 1024.2 0.0
27/01:00pm 9.5 4.7 4.9 73 2.1 SSW 19 24 10 13 1024.2 1024.6 0.0
27/12:30pm 9.3 6.3 6.0 80 1.6 SSW 11 20 6 11 1024.4 1024.8 0.0
27/12:00pm 8.5 5.5 6.0 84 1.2 WSW 11 20 6 11 1024.6 1025.0 0.0
27/11:30am 8.5 5.6 6.3 86 1.0 WSW 11 20 6 11 1024.7 1025.1 0.0
27/11:00am 8.8 4.2 5.5 80 1.5 SW 19 28 10 15 1024.7 1025.1 0.0
27/10:30am 7.9 4.5 5.9 87 0.9 SW 13 24 7 13 1024.8 1025.2 0.0
27/10:00am 7.7 5.0 7.3 97 0.2 WSW 11 17 6 9 1024.7 1025.1 0.0
27/09:30am 6.8 3.2 6.7 99 0.0 WSW 15 22 8 12 1024.6 1025.0 0.0
27/09:00am 6.4 3.1 6.4 100 0.0 WSW 13 20 7 11 1024.5 1024.9 0.4
27/08:30am 5.8 2.8 5.8 100 0.0 WSW 11 17 6 9 1024.4 1024.8 0.4
27/08:00am 4.9 1.7 4.9 100 0.0 W 11 15 6 8 1024.0 1024.3 0.4
27/07:30am 4.7 1.8 4.7 100 0.0 W 9 11 5 6 1023.8 1024.1 0.4
27/07:00am 4.3 1.0 4.3 100 0.0 W 11 11 6 6 1023.4 1023.7 0.4
27/06:30am 4.1 1.1 4.0 99 0.0 W 9 11 5 6 1023.0 1023.4 0.4
27/06:00am 3.9 0.5 3.8 99 0.0 W 11 15 6 8 1022.6 1023.0 0.4
27/05:30am 4.4 1.1 4.3 99 0.0 W 11 15 6 8 1022.3 1022.6 0.4
27/05:00am 4.5 1.2 4.4 99 0.0 WSW 11 13 6 7 1022.1 1022.4 0.4
27/04:30am 4.7 0.6 4.6 99 0.0 WSW 15 19 8 10 1021.9 1022.2 0.4
27/04:00am 4.7 1.0 4.6 99 0.0 WSW 13 17 7 9 1021.9 1022.2 0.4
27/03:30am 4.7 1.3 4.1 96 0.3 WSW 11 17 6 9 1022.0 1022.3 0.4
27/03:00am 4.8 0.8 2.7 86 0.9 WSW 13 17 7 9 1022.0 1022.3 0.4
27/02:30am 5.0 0.8 1.7 79 1.4 SW 13 17 7 9 1022.0 1022.3 0.4
27/02:00am 5.0 0.9 2.0 81 1.2 SW 13 19 7 10 1022.1 1022.4 0.4
27/01:30am 4.9 0.7 1.7 80 1.3 SW 13 17 7 9 1022.3 1022.6 0.4
27/01:00am 5.4 1.2 1.9 78 1.5 SW 13 17 7 9 1022.6 1023.0 0.4
27/12:30am 5.4 0.9 1.9 78 1.4 SSW 15 17 8 9 1022.5 1022.9 0.4
27/12:00am 5.6 0.6 1.5 75 1.7 S 17 19 9 10 1022.6 1023.0 0.4
 
Date/Time
CST
Temp
°C
App
Temp
°C
Dew
Point
Rel
Hum
%
Delta-T
°C
Wind Press
QNH
hPa
Press
MSL
hPa
Rain
since 9 am
mm
Dir
 
Spd
km/h
Gust
km/h
Spd
kts
Gust
kts
26/11:30pm 5.6 1.4 1.5 75 1.7 SSW 13 17 7 9 1023.0 1023.4 0.4
26/11:00pm 5.8 1.5 1.2 72 1.9 SSW 13 17 7 9 1023.3 1023.6 0.4
26/10:30pm 5.8 1.9 1.3 73 1.8 SSW 11 13 6 7 1023.5 1023.8 0.4
26/10:00pm 5.7 1.5 1.4 74 1.8 SW 13 19 7 10 1023.6 1023.9 0.4
26/09:30pm 6.1 1.6 4.1 87 0.9 SW 17 20 9 11 1023.4 1023.7 0.4
26/09:00pm 5.8 1.7 4.1 89 0.7 SW 15 20 8 11 1023.4 1023.7 0.4
26/08:30pm 5.8 1.9 3.5 85 1.0 WSW 13 17 7 9 1023.3 1023.6 0.4
26/08:00pm 6.1 2.1 2.9 80 1.4 SSW 13 17 7 9 1023.2 1023.5 0.4
26/07:30pm 6.4 2.4 2.7 77 1.6 S 13 15 7 8 1023.0 1023.4 0.4
26/07:00pm 6.6 2.7 3.2 79 1.5 S 13 17 7 9 1022.8 1023.2 0.4
26/06:30pm 6.4 2.7 4.6 88 0.8 S 13 15 7 8 1022.6 1023.0 0.4
26/06:00pm 6.9 3.5 5.8 93 0.5 SSW 13 17 7 9 1022.4 1022.7 0.4
26/05:30pm 7.5 3.7 5.8 89 0.8 SSW 15 19 8 10 1022.2 1022.5 0.4
26/05:00pm 8.4 4.0 5.0 79 1.6 SW 17 24 9 13 1022.0 1022.3 0.4
26/04:30pm 8.7 4.8 5.4 80 1.5 SSW 15 20 8 11 1021.8 1022.1 0.4
26/04:00pm 9.5 7.0 6.4 81 1.5 WSW 9 11 5 6 1021.8 1022.1 0.4
26/03:30pm 8.1 6.7 5.6 84 1.2 E 2 6 1 3 1021.9 1022.2 0.2
26/03:00pm 8.0 6.1 4.8 80 1.5 ESE 4 7 2 4 1022.0 1022.3 0.0
26/02:30pm 8.0 4.3 4.4 78 1.6 ENE 13 17 7 9 1022.0 1022.3 0.0
26/02:00pm 8.7 5.0 4.5 75 1.9 ENE 13 24 7 13 1022.1 1022.4 0.0
26/01:30pm 10.0 7.2 2.1 58 3.4 ESE 6 9 3 5 1022.3 1022.6 0.0
26/01:00pm 9.6 6.7 4.4 70 2.4 SSW 9 13 5 7 1022.5 1022.9 0.0
26/12:30pm 9.4 6.5 4.4 71 2.3 SSW 9 15 5 8 1022.7 1023.1 0.0
26/12:00pm 9.6 8.0 4.4 70 2.4 SE 2 9 1 5 1023.3 1023.6 0.0
26/11:30am 9.6 6.7 4.6 71 2.3 SSE 9 15 5 8 1023.6 1023.9 0.0
26/11:00am 9.3 6.2 5.7 78 1.7 SE 11 17 6 9 1023.8 1024.1 0.0
26/10:30am 9.2 6.2 5.9 80 1.5 SSE 11 15 6 8 1023.9 1024.2 0.0
26/10:00am 8.7 6.0 5.4 80 1.5 SSE 9 13 5 7 1023.9 1024.2 0.0
26/09:30am 8.2 5.1 5.5 83 1.2 SSE 11 15 6 8 1024.0 1024.3 0.0
26/09:00am 7.0 3.9 5.5 90 0.7 SE 11 15 6 8 1024.1 1024.4 0.0
26/08:30am 6.3 3.6 5.4 94 0.4 ESE 9 15 5 8 1024.1 1024.4 0.0
26/08:00am 6.5 2.8 4.7 88 0.8 SSE 13 17 7 9 1023.8 1024.1 0.0
26/07:30am 5.3 1.5 4.1 92 0.5 SSE 13 15 7 8 1023.6 1023.9 0.0
26/07:00am 5.4 2.8 4.2 92 0.5 S 7 13 4 7 1023.5 1023.8 0.0
26/06:30am 5.8 2.8 4.3 90 0.7 S 9 11 5 6 1023.4 1023.7 0.0
26/06:00am 6.2 3.2 4.2 87 0.9 SSE 9 13 5 7 1023.3 1023.6 0.0
26/05:30am 6.0 2.3 4.2 88 0.8 SE 13 15 7 8 1023.4 1023.7 0.0
26/05:00am 6.1 2.0 4.1 87 0.9 SE 15 17 8 9 1023.4 1023.7 0.0
26/04:30am 6.4 2.2 3.7 83 1.2 SE 15 19 8 10 1023.4 1023.7 0.0
26/04:00am 6.3 1.8 4.3 87 0.9 SE 17 20 9 11 1023.4 1023.7 0.0
26/03:30am 5.4 1.0 4.5 94 0.4 ESE 17 20 9 11 1023.5 1023.8 0.0
26/03:00am 5.4 0.9 4.1 91 0.6 SE 17 22 9 12 1023.7 1024.0 0.0
26/02:30am 5.5 0.7 4.6 94 0.4 SE 19 22 10 12 1023.9 1024.2 0.0
26/02:00am 5.2 0.3 5.1 99 0.0 SE 20 28 11 15 1024.0 1024.3 0.0
26/01:30am 4.8 -0.2 4.7 99 0.0 SE 20 24 11 13 1024.2 1024.6 0.0
26/01:00am 4.8 -0.6 4.7 99 0.0 SE 22 32 12 17 1024.4 1024.8 0.0
26/12:30am 4.9 -0.4 4.8 99 0.0 SE 22 28 12 15 1024.5 1024.9 0.0
26/12:00am 5.2 -0.1 5.1 99 0.0 SE 22 30 12 16 1024.7 1025.1 0.0
 
Date/Time
CST
Temp
°C
App
Temp
°C
Dew
Point
Rel
Hum
%
Delta-T
°C
Wind Press
QNH
hPa
Press
MSL
hPa
Rain
since 9 am
mm
Dir
 
Spd
km/h
Gust
km/h
Spd
kts
Gust
kts
25/11:30pm 5.3 0.0 5.2 99 0.0 SSE 22 28 12 15 1024.6 1025.0 0.0
25/11:00pm 5.4 0.5 5.3 99 0.0 SSE 20 28 11 15 1024.7 1025.1 0.0
25/10:30pm 5.5 -0.1 5.5 100 0.0 SSE 24 32 13 17 1024.9 1025.3 0.0
25/10:00pm 5.6 -0.7 5.5 99 0.0 SSE 28 37 15 20 1024.9 1025.3 0.0
25/09:30pm 5.5 -0.5 5.4 99 0.0 SSE 26 35 14 19 1025.0 1025.4 0.0
25/09:00pm 5.6 -0.4 5.5 99 0.0 SSE 26 37 14 20 1024.9 1025.3 0.0
25/08:30pm 5.5 -0.1 5.4 99 0.0 SSE 24 33 13 18 1025.2 1025.5 0.0
25/08:00pm 5.3 0.6 5.2 99 0.0 SSE 19 30 10 16 1025.3 1025.6 0.0
25/07:30pm 5.3 0.3 4.6 95 0.3 SSE 20 28 11 15 1025.3 1025.6 0.0
25/07:00pm 5.6 0.5 4.1 90 0.7 SSE 20 30 11 16 1025.2 1025.5 0.0
25/06:30pm 5.9 0.8 3.2 83 1.2 SSE 19 28 10 15 1024.9 1025.3 0.0
25/06:00pm 6.4 1.1 3.2 80 1.4 SSE 20 30 11 16 1024.7 1025.1 0.0
25/05:30pm 7.0 1.0 3.1 76 1.7 SSE 24 33 13 18 1024.5 1024.9 0.0
25/05:00pm 7.7 2.6 3.0 72 2.0 SSE 19 28 10 15 1024.3 1024.7 0.0
25/04:30pm 8.2 2.5 2.9 69 2.3 SSE 22 35 12 19 1024.2 1024.6 0.0
25/04:00pm 8.5 2.3 2.3 65 2.7 SSE 24 32 13 17 1024.3 1024.7 0.0
25/03:30pm 8.7 3.3 2.5 65 2.7 S 20 28 11 15 1024.4 1024.8 0.0
25/03:00pm 9.1 3.5 1.3 58 3.3 SSE 20 30 11 16 1024.4 1024.8 0.0

Other Formats:

Comma delimited format used in spreadsheet applications
http://www.bom.gov.au/fwo/IDS60801/IDS60801.94678.axf

JavaScript Object Notation format (JSON) in row-major order
http://www.bom.gov.au/fwo/IDS60801/IDS60801.94678.json